Time;durP1;ratioP1;P1;durP2;ratioP2;P2;SDS_P1;SDS_P2;PMS_P1;PMS_P2;Temp;Humidity;BMP_temperature;BMP_pressure;BME280_temperature;BME280_humidity;BME280_pressure;Samples;Min_cycle;Max_cycle;Signal;HPM_P1;HPM_P2
2022/09/11 00:00:44;;;;;;;;;;;;;;;18.55;62.23;95466.88;5069668;28;20017;-73
2022/09/11 00:03:10;;;;;;;;;;;;;;;18.25;62.48;95471.84;5051571;28;20010;-73
2022/09/11 00:05:38;;;;;;;;;;;;;;;18.65;62.27;95466.34;5072352;28;20470;-73
2022/09/11 00:08:05;;;;;;;;;;;;;;;18.52;61.88;95472.94;5055961;28;20019;-74
2022/09/11 00:10:32;;;;;;;;;;;;;;;18.21;62.53;95462.91;5073437;28;20005;-73
2022/09/11 00:12:58;;;;;;;;;;;;;;;18.52;61.80;95464.84;5070893;28;20013;-73
2022/09/11 00:15:23;;;;;;;;;;;;;;;18.29;63.00;95459.28;5073437;28;20369;-73
2022/09/11 00:17:48;;;;;;;;;;;;;;;18.60;61.81;95455.81;5062901;28;20017;-74
2022/09/11 00:20:13;;;;;;;;;;;;;;;18.40;61.71;95463.03;5053247;28;20006;-73
2022/09/11 00:22:38;;;;;;;;;;;;;;;18.70;61.51;95455.34;5053146;28;20018;-74
2022/09/11 00:25:04;;;;;;;;;;;;;;;17.84;62.95;95454.22;5052911;28;20021;-74
2022/09/11 00:27:29;;;;;;;;;;;;;;;18.31;62.75;95454.31;5045750;28;20013;-73
2022/09/11 00:29:54;;;;;;;;;;;;;;;17.84;63.08;95454.22;5072860;28;20013;-73
2022/09/11 00:32:19;;;;;;;;;;;;;;;18.10;63.32;95454.53;5072465;28;20929;-74
2022/09/11 00:34:45;;;;;;;;;;;;;;;18.21;62.35;95454.03;5073079;28;20019;-74
2022/09/11 00:37:11;;;;;;;;;;;;;;;18.50;62.18;95450.97;5070285;28;20009;-73
2022/09/11 00:39:36;;;;;;;;;;;;;;;18.03;62.94;95448.97;5072907;28;20005;-73
2022/09/11 00:42:01;;;;;;;;;;;;;;;18.16;62.81;95457.75;5052270;28;20009;-73
2022/09/11 00:44:27;;;;;;;;;;;;;;;18.26;62.86;95451.09;5073144;28;20115;-73
2022/09/11 00:46:57;;;;;;;;;;;;;;;18.35;62.36;95455.19;5072796;28;20040;-73
2022/09/11 00:49:24;;;;;;;;;;;;;;;18.12;62.68;95449.59;5052293;28;20009;-73
2022/09/11 00:51:52;;;;;;;;;;;;;;;17.88;63.94;95445.09;5054057;28;20107;-73
2022/09/11 00:54:19;;;;;;;;;;;;;;;17.50;64.61;95447.44;5072263;28;20012;-73
2022/09/11 00:56:46;;;;;;;;;;;;;;;18.05;63.90;95446.72;5052462;28;20115;-73
2022/09/11 00:59:11;;;;;;;;;;;;;;;17.60;65.39;95449.66;5072787;28;20005;-73
2022/09/11 01:01:36;;;;;;;;;;;;;;;17.72;64.94;95446.94;5072496;28;20058;-73
2022/09/11 01:04:03;;;;;;;;;;;;;;;18.22;63.80;95452.91;5071883;28;20005;-74
2022/09/11 01:06:28;;;;;;;;;;;;;;;18.38;63.21;95443.75;5072475;28;20090;-74
2022/09/11 01:08:53;;;;;;;;;;;;;;;17.82;63.70;95445.72;5070720;28;20079;-74
2022/09/11 01:11:18;;;;;;;;;;;;;;;17.44;65.28;95446.13;5072606;28;20012;-75
2022/09/11 01:13:59;;;;;;;;;;;;;;;18.19;63.43;95449.78;5051764;28;20563;-74
2022/09/11 01:16:39;;;;;;;;;;;;;;;18.40;62.50;95448.78;5036504;28;20018;-74
2022/09/11 01:19:23;;;;;;;;;;;;;;;18.06;62.71;95448.28;5031250;28;20017;-74
2022/09/11 01:21:54;;;;;;;;;;;;;;;18.01;63.86;95445.81;5032583;28;20596;-75
2022/09/11 01:24:30;;;;;;;;;;;;;;;17.84;64.26;95438.84;5030397;28;20540;-75
2022/09/11 01:27:09;;;;;;;;;;;;;;;18.22;62.89;95444.81;5048844;28;20067;-75
2022/09/11 01:29:54;;;;;;;;;;;;;;;18.28;62.35;95443.47;5072242;28;20012;-75
2022/09/11 01:32:23;;;;;;;;;;;;;;;17.51;64.56;95433.66;5070508;28;20031;-74
2022/09/11 01:34:56;;;;;;;;;;;;;;;17.62;64.71;95442.81;5053995;28;20010;-74
2022/09/11 01:37:27;;;;;;;;;;;;;;;17.79;64.23;95438.31;5070650;28;20010;-74
2022/09/11 01:39:58;;;;;;;;;;;;;;;17.71;64.16;95442.69;5054045;28;20063;-74
2022/09/11 01:42:24;;;;;;;;;;;;;;;17.56;65.28;95446.88;5051130;28;20066;-74
2022/09/11 01:44:51;;;;;;;;;;;;;;;17.84;64.29;95435.38;5071984;28;20020;-74
2022/09/11 01:47:18;;;;;;;;;;;;;;;17.51;64.50;95444.44;5071880;28;20005;-74
2022/09/11 01:49:43;;;;;;;;;;;;;;;18.10;63.78;95445.69;5070005;28;20385;-73
2022/09/11 01:52:16;;;;;;;;;;;;;;;18.47;62.94;95440.88;5071386;28;20088;-74
2022/09/11 01:54:45;;;;;;;;;;;;;;;18.34;61.94;95442.88;5049675;28;20082;-74
2022/09/11 01:57:30;;;;;;;;;;;;;;;18.68;61.85;95435.25;5053679;28;20016;-74
2022/09/11 01:59:59;;;;;;;;;;;;;;;18.88;61.29;95439.59;5051958;28;20021;-75
2022/09/11 02:02:27;;;;;;;;;;;;;;;18.77;61.17;95433.16;5053053;28;20015;-75
2022/09/11 02:05:02;;;;;;;;;;;;;;;18.80;61.16;95437.09;5071478;28;20020;-74
2022/09/11 02:07:32;;;;;;;;;;;;;;;18.40;61.50;95441.47;5053458;28;20009;-75
2022/09/11 02:10:00;;;;;;;;;;;;;;;18.40;61.64;95435.31;5070608;28;20017;-75
2022/09/11 02:12:29;;;;;;;;;;;;;;;17.57;63.92;95429.59;5071328;28;20454;-74
2022/09/11 02:14:55;;;;;;;;;;;;;;;18.27;62.17;95440.00;5051614;28;20024;-74
2022/09/11 02:17:20;;;;;;;;;;;;;;;17.70;63.35;95434.94;5053529;28;20009;-74
2022/09/11 02:19:46;;;;;;;;;;;;;;;18.06;63.43;95431.34;5069331;28;20013;-74
2022/09/11 02:22:11;;;;;;;;;;;;;;;18.20;62.70;95434.41;5052317;28;20017;-75
2022/09/11 02:24:36;;;;;;;;;;;;;;;18.64;61.71;95435.16;5052173;28;20596;-75
2022/09/11 02:27:04;;;;;;;;;;;;;;;18.55;61.73;95437.22;5052595;28;20009;-74
2022/09/11 02:29:29;;;;;;;;;;;;;;;18.49;61.69;95435.94;5051199;28;20016;-74
2022/09/11 02:31:55;;;;;;;;;;;;;;;18.06;62.35;95437.50;5053229;28;20013;-75
2022/09/11 02:34:22;;;;;;;;;;;;;;;18.66;61.70;95430.19;5052927;28;20013;-75
2022/09/11 02:37:06;;;;;;;;;;;;;;;18.69;61.16;95426.84;5053134;28;20100;-74
2022/09/11 02:39:38;;;;;;;;;;;;;;;18.94;60.83;95430.13;5039589;28;20014;-74
2022/09/11 02:42:09;;;;;;;;;;;;;;;18.44;61.09;95436.19;5032701;28;20079;-74
2022/09/11 02:44:46;;;;;;;;;;;;;;;18.36;62.09;95431.75;5042110;28;20017;-75
2022/09/11 02:47:17;;;;;;;;;;;;;;;18.33;62.35;95432.44;5070743;28;20012;-74
2022/09/11 02:50:04;;;;;;;;;;;;;;;17.76;63.91;95425.53;5052692;28;20112;-76
2022/09/11 02:52:29;;;;;;;;;;;;;;;18.07;62.86;95431.00;5032447;28;20120;-74
2022/09/11 02:55:01;;;;;;;;;;;;;;;18.10;63.19;95424.16;5032531;28;20053;-74
2022/09/11 02:57:31;;;;;;;;;;;;;;;17.86;64.12;95427.72;5032618;28;20470;-75
2022/09/11 03:00:00;;;;;;;;;;;;;;;17.82;64.43;95421.50;5043064;28;20139;-74
2022/09/11 03:02:26;;;;;;;;;;;;;;;18.10;63.33;95419.53;5052176;28;20473;-76
2022/09/11 03:04:52;;;;;;;;;;;;;;;17.72;64.26;95420.03;5070370;28;20009;-74
2022/09/11 03:07:17;;;;;;;;;;;;;;;18.32;62.77;95428.94;5052555;28;20020;-74
2022/09/11 03:09:42;;;;;;;;;;;;;;;18.58;62.37;95420.38;5051121;28;20013;-75
2022/09/11 03:12:07;;;;;;;;;;;;;;;18.48;61.94;95418.22;5051963;28;20053;-75
2022/09/11 03:14:34;;;;;;;;;;;;;;;17.91;62.76;95416.72;5067740;28;20009;-74
2022/09/11 03:17:00;;;;;;;;;;;;;;;18.22;62.94;95413.31;5070274;28;20013;-75
2022/09/11 03:19:26;;;;;;;;;;;;;;;18.24;62.85;95421.06;5052252;28;20009;-75
2022/09/11 03:21:52;;;;;;;;;;;;;;;18.26;62.18;95414.19;5055856;28;20409;-75
2022/09/11 03:24:17;;;;;;;;;;;;;;;18.54;61.88;95414.13;5031776;28;20009;-75
2022/09/11 03:26:42;;;;;;;;;;;;;;;18.74;61.14;95419.63;5032153;28;20499;-75
2022/09/11 03:29:07;;;;;;;;;;;;;;;18.12;62.73;95417.31;5049110;28;20059;-75
2022/09/11 03:31:33;;;;;;;;;;;;;;;17.99;62.72;95418.47;5050086;28;20063;-75
2022/09/11 03:33:58;;;;;;;;;;;;;;;18.03;62.20;95423.97;5049711;28;20005;-74
2022/09/11 03:36:23;;;;;;;;;;;;;;;18.41;61.39;95431.47;5032013;28;20014;-75
2022/09/11 03:38:48;;;;;;;;;;;;;;;18.18;62.12;95429.38;5052177;28;20044;-75
2022/09/11 03:41:14;;;;;;;;;;;;;;;18.56;61.23;95419.16;5055934;28;20013;-74
2022/09/11 03:43:39;;;;;;;;;;;;;;;18.54;60.98;95413.34;5076254;28;20005;-75
2022/09/11 03:46:05;;;;;;;;;;;;;;;18.02;62.47;95415.13;5073296;28;20103;-74
2022/09/11 03:48:30;;;;;;;;;;;;;;;18.28;61.57;95416.53;5076691;28;20005;-75
2022/09/11 03:50:55;;;;;;;;;;;;;;;17.62;63.12;95415.91;5076572;28;20005;-74
2022/09/11 03:53:20;;;;;;;;;;;;;;;17.95;62.67;95417.59;5039798;28;20458;-74
2022/09/11 03:55:48;;;;;;;;;;;;;;;18.32;62.14;95412.78;5038486;28;20012;-75
2022/09/11 03:58:14;;;;;;;;;;;;;;;18.25;62.33;95411.84;5038568;28;20010;-74
2022/09/11 04:00:41;;;;;;;;;;;;;;;18.26;61.88;95406.09;5046999;28;20021;-75
2022/09/11 04:03:06;;;;;;;;;;;;;;;18.43;61.67;95413.09;5058038;28;20040;-75
2022/09/11 04:05:32;;;;;;;;;;;;;;;18.42;61.38;95414.97;5058566;28;20056;-75
2022/09/11 04:07:58;;;;;;;;;;;;;;;18.03;62.74;95416.66;5076304;28;20096;-75
2022/09/11 04:10:23;;;;;;;;;;;;;;;18.10;62.55;95416.06;5074645;28;20009;-74
2022/09/11 04:12:48;;;;;;;;;;;;;;;18.48;61.27;95420.91;5058064;28;20024;-75
2022/09/11 04:15:14;;;;;;;;;;;;;;;18.47;60.85;95416.63;5055951;28;20009;-74
2022/09/11 04:17:39;;;;;;;;;;;;;;;18.44;60.39;95414.63;5076240;28;20396;-74
2022/09/11 04:20:05;;;;;;;;;;;;;;;18.26;61.12;95410.72;5076241;28;20010;-74
2022/09/11 04:22:30;;;;;;;;;;;;;;;18.62;60.72;95410.44;5074424;28;20504;-74
2022/09/11 04:24:56;;;;;;;;;;;;;;;18.50;60.76;95413.25;5058319;28;20027;-74
2022/09/11 04:27:22;;;;;;;;;;;;;;;18.74;60.31;95406.94;5058407;28;20055;-75
2022/09/11 04:29:47;;;;;;;;;;;;;;;18.99;59.91;95409.41;5076153;28;20013;-75
2022/09/11 04:32:13;;;;;;;;;;;;;;;18.49;60.12;95405.53;5073320;28;20720;-73
2022/09/11 04:34:38;;;;;;;;;;;;;;;17.89;62.46;95406.31;5058405;28;20009;-74
2022/09/11 04:37:03;;;;;;;;;;;;;;;18.50;61.42;95420.53;5058112;28;20599;-74
2022/09/11 04:39:29;;;;;;;;;;;;;;;18.81;60.58;95417.09;5058055;28;20009;-74
2022/09/11 04:41:56;;;;;;;;;;;;;;;18.68;60.62;95411.00;5074630;28;20039;-74
2022/09/11 04:44:21;;;;;;;;;;;;;;;18.07;62.29;95414.88;5057682;28;20013;-74
2022/09/11 04:46:47;;;;;;;;;;;;;;;17.71;63.39;95414.97;5055778;28;20028;-75
2022/09/11 04:49:13;;;;;;;;;;;;;;;18.27;62.20;95417.66;5058063;28;20049;-74
2022/09/11 04:51:39;;;;;;;;;;;;;;;17.33;64.45;95418.91;5072300;28;20005;-74
2022/09/11 04:54:05;;;;;;;;;;;;;;;17.90;62.63;95415.16;5051534;28;20041;-74
2022/09/11 04:56:31;;;;;;;;;;;;;;;17.65;63.68;95425.97;5052994;28;20006;-73
2022/09/11 04:58:58;;;;;;;;;;;;;;;17.20;65.45;95428.13;5052714;28;20016;-75
2022/09/11 05:01:24;;;;;;;;;;;;;;;16.91;66.95;95434.53;5040314;28;20036;-74
2022/09/11 05:03:49;;;;;;;;;;;;;;;16.62;68.19;95437.06;5054300;28;20032;-75
2022/09/11 05:06:15;;;;;;;;;;;;;;;16.95;67.64;95422.00;5054439;28;20490;-75
2022/09/11 05:08:40;;;;;;;;;;;;;;;17.16;67.13;95419.97;5072680;28;20013;-75
2022/09/11 05:11:09;;;;;;;;;;;;;;;17.43;65.98;95405.00;5052992;28;20012;-74
2022/09/11 05:13:35;;;;;;;;;;;;;;;17.67;65.28;95417.59;5054146;28;20067;-73
2022/09/11 05:16:04;;;;;;;;;;;;;;;17.58;65.16;95427.69;5051727;28;20010;-74
2022/09/11 05:18:29;;;;;;;;;;;;;;;17.90;64.70;95423.22;5054692;28;20031;-74
2022/09/11 05:20:59;;;;;;;;;;;;;;;17.56;66.16;95427.28;5054224;28;20023;-74
2022/09/11 05:23:24;;;;;;;;;;;;;;;16.98;67.35;95432.06;5052564;28;20010;-74
2022/09/11 05:25:49;;;;;;;;;;;;;;;17.19;66.60;95434.63;5072130;28;20385;-74
2022/09/11 05:28:15;;;;;;;;;;;;;;;18.17;64.15;95429.72;5054081;28;20013;-74
2022/09/11 05:30:41;;;;;;;;;;;;;;;18.34;62.91;95431.31;5072321;28;20466;-73
2022/09/11 05:33:06;;;;;;;;;;;;;;;18.26;62.73;95440.31;5068723;28;20020;-73
2022/09/11 05:35:31;;;;;;;;;;;;;;;17.87;63.80;95432.78;5054087;28;20049;-74
2022/09/11 05:37:57;;;;;;;;;;;;;;;17.17;66.65;95426.13;5053778;28;20469;-74
2022/09/11 05:40:22;;;;;;;;;;;;;;;18.32;63.84;95434.34;5053994;28;20095;-74
2022/09/11 05:42:47;;;;;;;;;;;;;;;17.97;64.25;95438.81;5034644;28;20010;-74
2022/09/11 05:45:12;;;;;;;;;;;;;;;18.17;63.75;95438.59;5030500;28;20068;-74
2022/09/11 05:47:38;;;;;;;;;;;;;;;18.35;63.05;95440.94;5033139;28;20041;-74
2022/09/11 05:50:03;;;;;;;;;;;;;;;17.31;65.72;95443.47;5033890;28;20067;-74
2022/09/11 05:52:29;;;;;;;;;;;;;;;18.18;63.56;95442.06;5051142;28;20013;-74
2022/09/11 05:54:55;;;;;;;;;;;;;;;18.06;62.57;95442.88;5049715;28;20453;-73
2022/09/11 05:57:20;;;;;;;;;;;;;;;17.56;64.99;95454.94;5053721;28;20364;-73
2022/09/11 05:59:46;;;;;;;;;;;;;;;17.33;65.85;95451.19;5053719;28;20009;-73
2022/09/11 06:02:11;;;;;;;;;;;;;;;18.03;63.38;95457.06;5068979;28;20012;-73
2022/09/11 06:04:36;;;;;;;;;;;;;;;16.94;66.66;95468.78;5053377;28;20014;-74
2022/09/11 06:07:02;;;;;;;;;;;;;;;18.10;63.80;95464.53;5053612;28;20124;-73
2022/09/11 06:09:27;;;;;;;;;;;;;;;17.44;64.86;95468.41;5071369;28;20001;-75
2022/09/11 06:11:52;;;;;;;;;;;;;;;18.39;62.97;95456.06;5052104;28;20017;-74
2022/09/11 06:14:17;;;;;;;;;;;;;;;19.09;61.21;95471.69;5070790;28;20001;-73
2022/09/11 06:16:43;;;;;;;;;;;;;;;16.71;67.61;95482.66;5052016;28;20013;-74
2022/09/11 06:19:08;;;;;;;;;;;;;;;17.74;65.10;95481.59;5070516;28;20374;-73
2022/09/11 06:21:33;;;;;;;;;;;;;;;17.90;64.32;95474.38;5051895;28;20012;-73
2022/09/11 06:23:58;;;;;;;;;;;;;;;18.05;63.18;95470.94;5070904;28;20016;-74
2022/09/11 06:26:24;;;;;;;;;;;;;;;17.86;64.38;95470.78;5070707;28;20013;-73
2022/09/11 06:28:50;;;;;;;;;;;;;;;18.23;63.20;95476.03;5070802;28;20005;-73
2022/09/11 06:31:17;;;;;;;;;;;;;;;18.23;62.90;95478.72;5052892;28;20533;-73
2022/09/11 06:33:42;;;;;;;;;;;;;;;17.18;66.39;95486.81;5066833;28;20056;-74
2022/09/11 06:36:18;;;;;;;;;;;;;;;18.26;63.29;95478.03;5052566;28;20056;-73
2022/09/11 06:38:44;;;;;;;;;;;;;;;17.54;65.70;95478.69;5070655;28;20499;-74
2022/09/11 06:41:12;;;;;;;;;;;;;;;17.58;64.67;95487.66;5052758;28;20100;-73
2022/09/11 06:43:38;;;;;;;;;;;;;;;17.87;64.08;95483.13;5068999;28;20410;-74
2022/09/11 06:46:09;;;;;;;;;;;;;;;18.28;62.92;95484.66;5070375;28;20112;-73
2022/09/11 06:48:34;;;;;;;;;;;;;;;17.54;65.41;95483.28;5067883;28;20016;-74
2022/09/11 06:51:03;;;;;;;;;;;;;;;17.57;65.43;95475.34;5052575;28;20113;-74
2022/09/11 06:53:28;;;;;;;;;;;;;;;16.84;67.29;95486.94;5052322;28;20010;-75
2022/09/11 06:56:00;;;;;;;;;;;;;;;17.82;64.93;95488.75;5068795;28;20107;-75
2022/09/11 06:58:26;;;;;;;;;;;;;;;17.06;67.49;95498.38;5471664;22;20024;-71
2022/09/11 07:00:51;;;;;;;;;;;;;;;17.82;64.77;95492.22;5128678;27;20026;-75
2022/09/11 07:03:16;;;;;;;;;;;;;;;17.85;64.36;95485.38;5132818;27;20348;-69
2022/09/11 07:05:46;;;;;;;;;;;;;;;17.40;68.10;95494.41;5113457;27;20375;-75
2022/09/11 07:08:11;;;;;;;;;;;;;;;16.93;68.78;95497.56;5131522;27;20015;-74
2022/09/11 07:10:36;;;;;;;;;;;;;;;16.75;70.24;95494.31;5118167;27;20009;-74
2022/09/11 07:13:01;;;;;;;;;;;;;;;17.12;68.83;95500.47;5110926;28;20008;-74
2022/09/11 07:15:27;;;;;;;;;;;;;;;17.13;69.23;95498.56;5110360;28;20542;-74
2022/09/11 07:17:53;;;;;;;;;;;;;;;17.36;68.14;95505.06;5093064;28;20068;-75
2022/09/11 07:20:19;;;;;;;;;;;;;;;17.93;66.69;95501.38;5092550;28;20452;-74
2022/09/11 07:22:45;;;;;;;;;;;;;;;17.10;68.79;95518.88;5111422;28;20009;-74
2022/09/11 07:25:10;;;;;;;;;;;;;;;16.91;69.32;95507.88;5092773;28;20476;-74
2022/09/11 07:27:35;;;;;;;;;;;;;;;17.04;68.58;95485.25;5111131;28;20107;-75
2022/09/11 07:30:02;;;;;;;;;;;;;;;16.87;69.33;95521.19;5125501;27;20015;-74
2022/09/11 07:32:28;;;;;;;;;;;;;;;16.60;70.28;95527.16;5110994;28;20015;-74
2022/09/11 07:34:53;;;;;;;;;;;;;;;16.74;70.53;95516.16;5110922;28;20360;-74
2022/09/11 07:37:18;;;;;;;;;;;;;;;16.59;71.06;95528.28;5110810;28;20067;-75
2022/09/11 07:39:43;;;;;;;;;;;;;;;16.76;70.98;95525.44;5110378;28;20005;-75
2022/09/11 07:42:08;;;;;;;;;;;;;;;16.61;70.92;95526.81;5110551;28;20009;-74
2022/09/11 07:44:34;;;;;;;;;;;;;;;16.81;70.07;95492.19;5092143;28;20096;-72
2022/09/11 07:46:59;;;;;;;;;;;;;;;16.76;70.67;95524.66;5092686;28;20126;-70
2022/09/11 07:49:26;;;;;;;;;;;;;;;17.75;67.42;95535.06;5110361;28;20048;-72
2022/09/11 07:51:51;;;;;;;;;;;;;;;16.96;69.41;95533.75;5126928;28;20069;-70
2022/09/11 07:54:16;;;;;;;;;;;;;;;18.04;66.40;95539.38;5110360;28;20524;-69
2022/09/11 07:56:41;;;;;;;;;;;;;;;17.20;68.55;95541.00;5093373;28;20012;-69
2022/09/11 07:59:07;;;;;;;;;;;;;;;18.29;65.48;95540.06;5094967;28;20097;-70
2022/09/11 08:01:32;;;;;;;;;;;;;;;17.10;68.39;95561.88;5112523;28;20173;-67
2022/09/11 08:04:03;;;;;;;;;;;;;;;18.24;65.12;95545.69;5092683;28;20016;-70
2022/09/11 08:06:30;;;;;;;;;;;;;;;18.89;63.27;95543.59;5091910;28;20490;-70
2022/09/11 08:08:57;;;;;;;;;;;;;;;19.54;61.16;95543.19;5091713;28;20009;-70
2022/09/11 08:11:23;;;;;;;;;;;;;;;18.37;64.10;95538.31;5111251;28;20077;-69
2022/09/11 08:13:52;;;;;;;;;;;;;;;18.82;63.59;95553.41;5110675;28;20528;-74
2022/09/11 08:16:18;;;;;;;;;;;;;;;18.44;64.03;95554.69;5110473;28;20103;-73
2022/09/11 08:18:44;;;;;;;;;;;;;;;18.30;64.46;95557.00;5091691;28;20507;-75
2022/09/11 08:21:09;;;;;;;;;;;;;;;18.33;64.49;95554.41;5110276;28;20012;-73
2022/09/11 08:23:35;;;;;;;;;;;;;;;17.60;66.69;95566.09;5092031;28;20013;-72
2022/09/11 08:26:08;;;;;;;;;;;;;;;19.47;61.45;95567.31;5111316;28;20013;-72
2022/09/11 08:28:34;;;;;;;;;;;;;;;18.15;64.58;95572.75;5113869;28;20475;-71
2022/09/11 08:31:03;;;;;;;;;;;;;;;19.91;61.12;95564.47;5113244;28;20480;-73
2022/09/11 08:33:28;;;;;;;;;;;;;;;17.35;67.60;95570.72;5113979;28;20012;-72
2022/09/11 08:35:54;;;;;;;;;;;;;;;17.38;68.54;95578.09;5114099;28;20005;-72
2022/09/11 08:38:19;;;;;;;;;;;;;;;16.81;71.35;95587.00;5113388;28;20008;-72
2022/09/11 08:40:45;;;;;;;;;;;;;;;16.86;71.99;95586.78;5113982;28;20008;-72
2022/09/11 08:43:22;;;;;;;;;;;;;;;16.85;72.50;95593.28;5114130;28;20093;-71
2022/09/11 08:45:48;;;;;;;;;;;;;;;17.41;70.49;95585.50;5112871;28;20463;-72
2022/09/11 08:48:13;;;;;;;;;;;;;;;18.52;67.80;95577.22;5113221;28;20095;-72
2022/09/11 08:50:41;;;;;;;;;;;;;;;18.01;67.82;95585.00;5113583;28;20050;-71
2022/09/11 08:53:11;;;;;;;;;;;;;;;18.47;66.82;95588.22;5113425;28;20053;-72
2022/09/11 08:55:38;;;;;;;;;;;;;;;18.19;66.85;95589.78;5113678;28;20004;-72
2022/09/11 08:58:16;;;;;;;;;;;;;;;18.71;66.16;95593.53;5113435;28;20009;-74
2022/09/11 09:00:46;;;;;;;;;;;;;;;18.67;65.15;95601.50;5094537;28;20123;-72
2022/09/11 09:03:20;;;;;;;;;;;;;;;18.07;66.54;95595.22;5113378;28;20009;-73
2022/09/11 09:05:52;;;;;;;;;;;;;;;18.99;64.39;95590.00;5095145;28;20482;-73
2022/09/11 09:08:52;;;;;;;;;;;;;;;18.74;65.76;95595.56;5111956;28;20009;-73
2022/09/11 09:11:20;;;;;;;;;;;;;;;18.17;65.71;95605.53;5030136;28;20014;-75
2022/09/11 09:13:58;;;;;;;;;;;;;;;18.51;64.81;95603.38;5089261;28;20016;-71
2022/09/11 09:16:23;;;;;;;;;;;;;;;18.56;65.50;95605.81;5113071;27;20023;-72
2022/09/11 09:18:52;;;;;;;;;;;;;;;18.63;65.08;95595.25;5109700;27;20016;-73
2022/09/11 09:21:29;;;;;;;;;;;;;;;19.10;63.16;95610.75;5128892;27;20390;-72
2022/09/11 09:23:55;;;;;;;;;;;;;;;19.04;63.82;95598.66;5094788;28;20141;-72
2022/09/11 09:26:23;;;;;;;;;;;;;;;18.63;64.66;95608.72;5094500;28;20436;-73
2022/09/11 09:28:51;;;;;;;;;;;;;;;19.59;61.73;95601.50;5112421;28;20011;-73
2022/09/11 09:31:19;;;;;;;;;;;;;;;18.15;66.20;95606.97;5112087;28;20596;-73
2022/09/11 09:33:50;;;;;;;;;;;;;;;18.82;64.90;95608.09;5112800;28;20109;-72
2022/09/11 09:36:19;;;;;;;;;;;;;;;18.65;65.26;95608.38;5112203;28;20514;-72
2022/09/11 09:38:45;;;;;;;;;;;;;;;18.80;65.66;95607.66;5094338;28;20013;-72
2022/09/11 09:41:42;;;;;;;;;;;;;;;19.48;63.42;95612.06;5112810;28;20005;-73
2022/09/11 09:44:22;;;;;;;;;;;;;;;18.71;65.64;95609.72;5066878;28;20056;-72
2022/09/11 09:46:49;;;;;;;;;;;;;;;17.79;67.82;95607.81;5111897;28;20019;-73
2022/09/11 09:49:23;;;;;;;;;;;;;;;18.49;66.27;95608.31;5112175;28;20027;-72
2022/09/11 09:51:48;;;;;;;;;;;;;;;18.53;66.35;95611.91;5094336;28;20012;-74
2022/09/11 09:54:15;;;;;;;;;;;;;;;19.00;63.50;95605.88;5112441;28;20005;-74
2022/09/11 09:56:41;;;;;;;;;;;;;;;19.59;62.24;95605.00;5094339;28;20013;-73
2022/09/11 09:59:07;;;;;;;;;;;;;;;19.02;63.17;95614.38;5112151;28;20111;-73
2022/09/11 10:01:38;;;;;;;;;;;;;;;19.21;61.50;95614.50;5093358;28;20531;-73
2022/09/11 10:04:09;;;;;;;;;;;;;;;18.65;63.76;95608.38;5093983;28;20063;-73
2022/09/11 10:06:35;;;;;;;;;;;;;;;18.51;64.13;95607.97;5112066;28;20213;-72
2022/09/11 10:09:00;;;;;;;;;;;;;;;19.49;61.94;95610.91;5093508;28;20516;-72
2022/09/11 10:11:29;;;;;;;;;;;;;;;19.80;61.86;95618.22;5112226;28;20000;-73
2022/09/11 10:13:55;;;;;;;;;;;;;;;18.09;64.65;95619.09;5112226;28;20011;-70
2022/09/11 10:16:24;;;;;;;;;;;;;;;18.66;65.32;95613.41;5110024;28;20608;-71
2022/09/11 10:18:50;;;;;;;;;;;;;;;18.50;65.79;95612.59;5119511;28;20011;-70
2022/09/11 10:21:23;;;;;;;;;;;;;;;18.22;66.58;95606.38;5104027;28;20349;-73
2022/09/11 10:23:53;;;;;;;;;;;;;;;18.28;67.91;95618.50;5100409;28;20005;-70
2022/09/11 10:26:21;;;;;;;;;;;;;;;17.81;69.45;95617.13;5112211;28;20487;-70
2022/09/11 10:28:47;;;;;;;;;;;;;;;17.03;72.34;95625.34;5096427;28;20023;-72
2022/09/11 10:31:13;;;;;;;;;;;;;;;16.86;73.92;95629.00;5091946;28;20012;-72
2022/09/11 10:33:40;;;;;;;;;;;;;;;17.18;73.70;95634.66;5112522;28;20107;-74
2022/09/11 10:36:07;;;;;;;;;;;;;;;17.24;74.26;95631.41;5112084;28;20095;-73
2022/09/11 10:38:45;;;;;;;;;;;;;;;17.08;73.65;95617.06;5093608;28;20017;-73
2022/09/11 10:41:13;;;;;;;;;;;;;;;17.14;74.10;95624.56;5112101;28;20009;-73
2022/09/11 10:43:51;;;;;;;;;;;;;;;17.83;70.25;95627.56;5094156;28;20523;-71
2022/09/11 10:46:23;;;;;;;;;;;;;;;17.76;70.21;95633.50;5110708;28;20020;-71
2022/09/11 10:48:53;;;;;;;;;;;;;;;18.51;67.33;95635.69;5110553;28;20016;-71
2022/09/11 10:51:18;;;;;;;;;;;;;;;18.64;66.13;95631.84;5111638;28;20001;-76
2022/09/11 10:53:52;;;;;;;;;;;;;;;18.75;65.59;95632.16;5093235;28;20008;-70
2022/09/11 10:56:18;;;;;;;;;;;;;;;19.64;64.12;95631.72;5106804;28;20009;-74
2022/09/11 10:58:45;;;;;;;;;;;;;;;19.90;63.28;95633.88;5093132;28;20058;-73
2022/09/11 11:01:11;;;;;;;;;;;;;;;20.35;62.75;95634.47;5110333;28;20051;-71
2022/09/11 11:03:36;;;;;;;;;;;;;;;20.68;61.64;95628.63;5093471;28;20053;-71
2022/09/11 11:06:22;;;;;;;;;;;;;;;19.80;62.72;95636.34;5093330;28;20016;-71
2022/09/11 11:08:47;;;;;;;;;;;;;;;20.70;61.77;95629.03;5110975;28;20501;-71
2022/09/11 11:11:13;;;;;;;;;;;;;;;21.38;60.26;95630.28;5092459;28;20020;-70
2022/09/11 11:13:58;;;;;;;;;;;;;;;19.20;64.08;95629.13;5093731;28;20010;-77
2022/09/11 11:16:46;;;;;;;;;;;;;;;20.00;61.40;95633.31;5111225;28;20017;-76
2022/09/11 11:19:14;;;;;;;;;;;;;;;20.12;60.50;95637.84;5111891;28;20005;-77
2022/09/11 11:21:58;;;;;;;;;;;;;;;19.77;61.72;95637.81;5093644;28;20128;-78
2022/09/11 11:24:31;;;;;;;;;;;;;;;19.99;61.08;95631.00;5093962;28;20008;-77
2022/09/11 11:27:35;;;;;;;;;;;;;;;19.98;61.95;95648.34;5111201;28;20041;-76
2022/09/11 11:30:19;;;;;;;;;;;;;;;20.79;59.95;95632.28;5045400;28;20010;-73
2022/09/11 11:32:57;;;;;;;;;;;;;;;18.68;65.57;95645.41;5011407;28;20014;-76
2022/09/11 11:35:40;;;;;;;;;;;;;;;18.58;67.32;95646.69;5087130;28;20061;-70
2022/09/11 11:38:10;;;;;;;;;;;;;;;19.26;66.06;95653.91;5072254;28;20013;-71
2022/09/11 11:40:45;;;;;;;;;;;;;;;18.77;68.48;95651.44;5077259;28;20136;-70
2022/09/11 11:43:11;;;;;;;;;;;;;;;19.48;67.96;95661.41;5111077;28;20008;-71
2022/09/11 11:45:39;;;;;;;;;;;;;;;20.24;67.37;95647.75;5092346;28;20019;-72
2022/09/11 11:48:12;;;;;;;;;;;;;;;19.76;67.42;95662.44;5087870;28;20019;-71
2022/09/11 11:50:52;;;;;;;;;;;;;;;19.80;67.15;95660.63;5105535;28;20016;-71
2022/09/11 11:53:27;;;;;;;;;;;;;;;19.05;67.76;95664.16;5092601;28;20051;-70
2022/09/11 11:56:06;;;;;;;;;;;;;;;18.45;69.58;95674.78;5110910;28;20122;-72
2022/09/11 11:58:38;;;;;;;;;;;;;;;18.48;68.64;95668.72;5092116;28;20009;-71
2022/09/11 12:01:05;;;;;;;;;;;;;;;18.90;68.99;95674.53;5094632;28;20187;-71
2022/09/11 12:03:31;;;;;;;;;;;;;;;19.05;67.44;95674.94;5114312;28;20019;-72
2022/09/11 12:05:56;;;;;;;;;;;;;;;19.49;66.11;95665.66;5114851;28;20012;-72
2022/09/11 12:08:22;;;;;;;;;;;;;;;19.63;63.96;95676.03;5114418;28;20013;-71
2022/09/11 12:10:55;;;;;;;;;;;;;;;20.11;61.79;95676.78;5096468;28;20044;-72
2022/09/11 12:13:25;;;;;;;;;;;;;;;20.31;60.88;95674.13;5096602;28;20538;-72
2022/09/11 12:16:00;;;;;;;;;;;;;;;20.17;60.32;95680.78;5114805;28;20004;-71
2022/09/11 12:18:25;;;;;;;;;;;;;;;19.91;62.66;95675.16;5108820;28;20467;-72
2022/09/11 12:20:50;;;;;;;;;;;;;;;20.26;61.13;95673.25;5096338;28;20033;-72
2022/09/11 12:23:41;;;;;;;;;;;;;;;20.18;61.21;95671.56;5114490;28;20057;-73
2022/09/11 12:26:06;;;;;;;;;;;;;;;20.03;62.25;95671.59;5098405;27;20565;-72
2022/09/11 12:28:33;;;;;;;;;;;;;;;20.28;61.17;95666.75;5095664;28;20051;-72
2022/09/11 12:30:58;;;;;;;;;;;;;;;20.62;60.45;95665.94;5114442;28;20015;-72
2022/09/11 12:33:46;;;;;;;;;;;;;;;20.22;60.61;95660.84;5113019;28;20013;-71
2022/09/11 12:36:23;;;;;;;;;;;;;;;20.70;59.86;95670.34;5095883;28;20005;-71
2022/09/11 12:38:52;;;;;;;;;;;;;;;20.40;60.43;95664.69;5113949;28;20089;-70
2022/09/11 12:41:24;;;;;;;;;;;;;;;21.74;57.80;95667.59;5114350;28;20001;-71
2022/09/11 12:43:49;;;;;;;;;;;;;;;22.16;55.99;95665.94;5114318;28;20005;-72
2022/09/11 12:46:20;;;;;;;;;;;;;;;23.24;54.33;95652.56;5113509;28;20039;-72
2022/09/11 12:48:53;;;;;;;;;;;;;;;24.07;52.31;95643.97;5110383;28;20320;-72
2022/09/11 12:51:26;;;;;;;;;;;;;;;23.84;50.39;95652.34;5113921;28;20099;-73
2022/09/11 12:53:53;;;;;;;;;;;;;;;24.29;50.27;95655.75;5114144;28;20032;-73